createdAt,value
2022-12-18T00:00:47.960Z,20.67
2022-12-18T00:03:34.826Z,22.08
2022-12-18T00:06:21.994Z,22.95
2022-12-18T00:09:07.515Z,24.58
2022-12-18T00:11:52.937Z,22.52
2022-12-18T00:14:38.434Z,22.98
2022-12-18T00:17:29.832Z,22.95
2022-12-18T00:20:15.548Z,21.98
2022-12-18T00:23:01.538Z,19.85
2022-12-18T00:25:47.029Z,21.23
2022-12-18T00:28:33.135Z,22.05
2022-12-18T00:31:22.365Z,21.45
2022-12-18T00:34:10.382Z,22.83
2022-12-18T00:36:58.504Z,23.98
2022-12-18T00:39:44.087Z,18.95
2022-12-18T00:42:48.101Z,21.67
2022-12-18T00:45:33.714Z,22.02
2022-12-18T00:48:19.524Z,19.95
2022-12-18T00:51:05.170Z,20.80
2022-12-18T00:53:51.040Z,22.35
2022-12-18T00:56:48.066Z,19.45
2022-12-18T00:59:34.709Z,20.17
2022-12-18T01:02:20.492Z,21.52
2022-12-18T01:05:06.355Z,20.95
2022-12-18T01:07:52.139Z,21.25
2022-12-18T01:10:41.722Z,23.00
2022-12-18T01:13:28.489Z,19.35
2022-12-18T01:16:16.299Z,19.08
2022-12-18T01:19:02.279Z,19.75
2022-12-18T01:21:47.914Z,21.50
2022-12-18T01:24:33.604Z,19.60
2022-12-18T01:27:19.058Z,18.27
2022-12-18T01:30:05.814Z,20.33
2022-12-18T01:32:51.726Z,19.63
2022-12-18T01:35:43.076Z,18.08
2022-12-18T01:38:29.923Z,20.30
2022-12-18T01:41:17.923Z,18.83
2022-12-18T01:44:42.434Z,18.30
2022-12-18T01:47:48.301Z,18.17
2022-12-18T01:50:38.472Z,19.27
2022-12-18T01:53:25.102Z,17.98
2022-12-18T01:56:15.600Z,19.05
2022-12-18T01:59:07.093Z,17.52
2022-12-18T02:01:52.679Z,18.42
2022-12-18T02:04:38.751Z,18.77
2022-12-18T02:07:52.307Z,17.63
2022-12-18T02:10:53.622Z,18.65
2022-12-18T02:13:43.454Z,16.85
2022-12-18T02:16:52.139Z,16.27
2022-12-18T02:19:37.933Z,19.25
2022-12-18T02:22:54.797Z,17.15
2022-12-18T02:26:02.184Z,18.75
2022-12-18T02:28:59.990Z,17.98
2022-12-18T02:31:53.073Z,17.90
2022-12-18T02:34:40.842Z,18.35
2022-12-18T02:37:33.341Z,18.15
2022-12-18T02:40:22.855Z,17.90
2022-12-18T02:43:14.899Z,18.98
2022-12-18T02:46:02.597Z,19.02
2022-12-18T02:48:52.540Z,18.70
2022-12-18T02:51:43.623Z,19.63
2022-12-18T02:54:32.182Z,20.67
2022-12-18T02:57:24.453Z,19.23
2022-12-18T03:00:17.085Z,21.73
2022-12-18T03:03:24.143Z,20.08
2022-12-18T03:06:29.052Z,21.60
2022-12-18T03:09:32.686Z,21.45
2022-12-18T03:12:28.530Z,19.17
2022-12-18T03:15:45.073Z,21.73
2022-12-18T03:18:46.856Z,22.90
2022-12-18T03:21:46.097Z,23.67
2022-12-18T03:24:35.820Z,21.38
2022-12-18T03:27:25.272Z,20.70
2022-12-18T03:30:14.897Z,19.08
2022-12-18T03:33:12.084Z,19.35
2022-12-18T03:36:02.757Z,19.92
2022-12-18T03:38:48.567Z,19.60
2022-12-18T03:41:44.041Z,20.05
2022-12-18T03:45:25.671Z,19.83
2022-12-18T03:48:38.868Z,18.75
2022-12-18T03:51:49.577Z,19.52
2022-12-18T03:54:37.360Z,19.52
2022-12-18T03:57:32.572Z,18.70
2022-12-18T04:00:19.491Z,20.80
2022-12-18T04:03:15.766Z,20.20
2022-12-18T04:06:07.214Z,18.52
2022-12-18T04:08:53.261Z,17.98
2022-12-18T04:11:44.732Z,16.80
2022-12-18T04:14:36.495Z,17.50
2022-12-18T04:17:23.930Z,17.88
2022-12-18T04:20:10.191Z,18.02
2022-12-18T04:22:59.132Z,16.98
2022-12-18T04:25:44.684Z,14.65
2022-12-18T04:28:35.662Z,15.68
2022-12-18T04:31:22.613Z,14.98
2022-12-18T04:34:09.098Z,15.88
2022-12-18T04:37:00.469Z,16.38
2022-12-18T04:39:46.610Z,15.82
2022-12-18T04:42:41.427Z,17.48
2022-12-18T04:45:27.136Z,14.82
2022-12-18T04:48:12.746Z,15.60
2022-12-18T04:50:58.458Z,16.75
2022-12-18T04:53:46.724Z,16.05
2022-12-18T04:56:33.108Z,15.40
2022-12-18T04:59:18.935Z,15.20
2022-12-18T05:02:04.460Z,15.15
2022-12-18T05:04:51.024Z,14.65
2022-12-18T05:07:36.544Z,15.45
2022-12-18T05:10:22.273Z,17.02
2022-12-18T05:13:07.605Z,15.68
2022-12-18T05:15:54.090Z,14.80
2022-12-18T05:18:39.779Z,16.45
2022-12-18T05:21:25.588Z,14.70
2022-12-18T05:24:11.400Z,15.32
2022-12-18T05:26:57.183Z,15.70
2022-12-18T05:29:42.578Z,16.08
2022-12-18T05:32:28.050Z,14.63
2022-12-18T05:35:13.537Z,15.38
2022-12-18T05:37:59.275Z,13.88
2022-12-18T05:40:45.251Z,14.18
2022-12-18T05:43:31.131Z,14.95
2022-12-18T05:46:21.177Z,13.25
2022-12-18T05:49:06.927Z,13.27
2022-12-18T05:51:52.526Z,15.00
2022-12-18T05:54:37.989Z,14.68
2022-12-18T05:57:24.098Z,14.55
2022-12-18T06:00:10.665Z,14.23
2022-12-18T06:02:57.576Z,13.27
2022-12-18T06:05:45.930Z,14.52
2022-12-18T06:08:31.575Z,12.50
2022-12-18T06:11:20.028Z,13.55
2022-12-18T06:14:06.881Z,15.40
2022-12-18T06:16:53.290Z,14.63
2022-12-18T06:19:38.920Z,12.10
2022-12-18T06:22:24.915Z,13.60
2022-12-18T06:25:10.718Z,13.68
2022-12-18T06:27:56.269Z,15.57
2022-12-18T06:30:45.223Z,15.05
2022-12-18T06:33:30.879Z,13.87
2022-12-18T06:36:17.598Z,12.85
2022-12-18T06:39:03.875Z,14.05
2022-12-18T06:41:49.489Z,15.00
2022-12-18T06:44:35.058Z,14.10
2022-12-18T06:47:20.706Z,14.52
2022-12-18T06:50:07.060Z,15.15
2022-12-18T06:52:52.859Z,14.85
2022-12-18T06:55:38.208Z,13.20
2022-12-18T06:58:24.322Z,13.98
2022-12-18T07:01:12.008Z,14.75
2022-12-18T07:03:58.567Z,14.13
2022-12-18T07:06:44.130Z,13.82
2022-12-18T07:09:29.668Z,14.68
2022-12-18T07:12:15.205Z,15.23
2022-12-18T07:15:00.645Z,16.00
2022-12-18T07:17:46.092Z,16.48
2022-12-18T07:20:31.922Z,15.52
2022-12-18T07:23:17.568Z,16.40
2022-12-18T07:26:08.550Z,15.40
2022-12-18T07:28:58.398Z,15.27
2022-12-18T07:31:44.537Z,15.13
2022-12-18T07:34:30.214Z,15.60
2022-12-18T07:37:15.979Z,15.57
2022-12-18T07:40:01.951Z,18.05
2022-12-18T07:42:47.697Z,17.52
2022-12-18T07:45:33.523Z,14.40
2022-12-18T07:48:19.110Z,15.10
2022-12-18T07:51:06.694Z,14.63
2022-12-18T07:53:52.785Z,14.45
2022-12-18T07:56:38.622Z,15.75
2022-12-18T07:59:24.116Z,14.40
2022-12-18T08:02:09.801Z,13.48
2022-12-18T08:04:55.588Z,13.82
2022-12-18T08:07:41.164Z,13.57
2022-12-18T08:10:26.876Z,16.10
2022-12-18T08:13:12.473Z,14.80
2022-12-18T08:16:06.989Z,16.90
2022-12-18T08:18:54.256Z,16.33
2022-12-18T08:21:43.279Z,16.10
2022-12-18T08:24:29.109Z,16.40
2022-12-18T08:27:29.245Z,16.67
2022-12-18T08:30:15.597Z,16.70
2022-12-18T08:33:01.061Z,16.55
2022-12-18T08:35:46.547Z,17.85
2022-12-18T08:38:33.475Z,18.80
2022-12-18T08:41:20.284Z,16.73
2022-12-18T08:44:29.052Z,17.85
2022-12-18T08:47:14.812Z,21.13
2022-12-18T08:50:00.413Z,19.00
2022-12-18T08:52:45.921Z,16.67
2022-12-18T08:55:32.527Z,17.40
2022-12-18T08:58:18.117Z,19.58
2022-12-18T09:01:10.084Z,19.48
2022-12-18T09:03:55.635Z,21.58
2022-12-18T09:06:41.562Z,17.92
2022-12-18T09:09:27.154Z,19.02
2022-12-18T09:12:12.957Z,17.45
2022-12-18T09:14:58.864Z,17.52
2022-12-18T09:17:44.707Z,19.20
2022-12-18T09:20:30.957Z,17.55
2022-12-18T09:23:16.669Z,18.85
2022-12-18T09:26:02.593Z,18.17
2022-12-18T09:28:48.583Z,20.67
2022-12-18T09:31:34.607Z,19.95
2022-12-18T09:34:22.765Z,21.80
2022-12-18T09:37:08.283Z,21.08
2022-12-18T09:39:53.863Z,18.65
2022-12-18T09:42:39.556Z,19.58
2022-12-18T09:45:25.621Z,20.38
2022-12-18T09:48:29.884Z,20.38
2022-12-18T09:51:24.514Z,19.75
2022-12-18T09:54:40.407Z,21.85
2022-12-18T09:57:32.092Z,20.47
2022-12-18T10:00:21.623Z,19.20
2022-12-18T10:03:12.482Z,16.60
2022-12-18T10:06:06.810Z,19.85
2022-12-18T10:09:02.511Z,18.98
2022-12-18T10:11:59.440Z,18.23
2022-12-18T10:15:25.530Z,18.33
2022-12-18T10:18:22.048Z,19.15
2022-12-18T10:21:24.810Z,16.90
2022-12-18T10:24:13.417Z,17.90
2022-12-18T10:27:19.551Z,18.10
2022-12-18T10:30:15.462Z,16.05
2022-12-18T10:33:04.486Z,16.13
2022-12-18T10:35:53.907Z,18.10
2022-12-18T10:38:40.113Z,21.88
2022-12-18T10:41:29.193Z,16.88
2022-12-18T10:44:22.011Z,16.88
2022-12-18T10:47:15.141Z,17.50
2022-12-18T10:50:00.631Z,16.80
2022-12-18T10:52:58.595Z,15.80
2022-12-18T10:55:47.860Z,19.70
2022-12-18T10:58:36.466Z,22.92
2022-12-18T11:01:22.332Z,22.13
2022-12-18T11:04:16.752Z,24.55
2022-12-18T11:07:09.976Z,24.58
2022-12-18T11:10:03.969Z,26.90
2022-12-18T11:12:50.209Z,25.40
2022-12-18T11:15:35.836Z,27.27
2022-12-18T11:18:35.367Z,25.30
2022-12-18T11:24:41.544Z,23.40
2022-12-18T11:27:29.103Z,26.02
2022-12-18T11:30:28.475Z,27.13
2022-12-18T11:33:21.743Z,23.75
2022-12-18T11:36:10.314Z,25.77
2022-12-18T11:39:00.445Z,27.45
2022-12-18T11:45:13.673Z,26.67
2022-12-18T11:48:08.052Z,24.02
2022-12-18T11:50:57.493Z,24.98
2022-12-18T11:53:42.946Z,24.27
2022-12-18T11:56:36.606Z,24.33
2022-12-18T11:59:31.448Z,22.88
2022-12-18T12:02:55.035Z,21.52
2022-12-18T12:05:58.336Z,22.98
2022-12-18T12:08:50.110Z,24.00
2022-12-18T12:11:56.116Z,21.95
2022-12-18T12:15:13.652Z,22.88
2022-12-18T12:18:13.598Z,21.73
2022-12-18T12:21:29.532Z,21.35
2022-12-18T12:24:42.945Z,22.75
2022-12-18T12:28:05.688Z,22.17
2022-12-18T12:30:52.344Z,22.52
2022-12-18T12:34:10.199Z,23.67
2022-12-18T12:37:05.375Z,22.70
2022-12-18T12:39:52.953Z,21.70
2022-12-18T12:43:08.778Z,23.67
2022-12-18T12:46:09.610Z,22.95
2022-12-18T12:49:03.526Z,21.50
2022-12-18T12:52:08.743Z,23.40
2022-12-18T12:54:55.161Z,24.95
2022-12-18T12:57:56.166Z,24.40
2022-12-18T13:01:24.197Z,24.50
2022-12-18T13:04:39.184Z,25.20
2022-12-18T13:07:48.778Z,26.42
2022-12-18T13:10:37.679Z,26.20
2022-12-18T13:16:11.569Z,25.95
2022-12-18T13:18:59.708Z,25.63
2022-12-18T13:21:55.216Z,26.63
2022-12-18T13:24:40.628Z,27.30
2022-12-18T13:27:41.569Z,26.85
2022-12-18T13:30:33.590Z,26.85
2022-12-18T13:33:24.772Z,27.05
2022-12-18T13:36:13.693Z,24.42
2022-12-18T13:39:30.058Z,27.23
2022-12-18T13:42:38.066Z,26.08
2022-12-18T13:45:41.154Z,24.83
2022-12-18T13:48:28.722Z,27.45
2022-12-18T13:51:19.342Z,25.05
2022-12-18T13:54:26.137Z,27.05
2022-12-18T13:57:32.092Z,24.92
2022-12-18T14:00:21.153Z,26.63
2022-12-18T14:03:25.040Z,24.85
2022-12-18T14:06:13.411Z,26.55
2022-12-18T14:09:00.813Z,28.40
2022-12-18T14:11:51.274Z,26.88
2022-12-18T14:14:37.893Z,29.27
2022-12-18T14:17:24.209Z,27.58
2022-12-18T14:20:16.328Z,29.95
2022-12-18T14:23:02.070Z,27.63
2022-12-18T14:25:48.106Z,28.20
2022-12-18T14:28:33.751Z,26.48
2022-12-18T14:31:21.399Z,27.80
2022-12-18T14:34:16.895Z,27.95
2022-12-18T14:37:03.009Z,26.65
2022-12-18T14:40:02.139Z,27.20
2022-12-18T14:42:50.562Z,27.63
2022-12-18T14:45:43.782Z,28.70
2022-12-18T14:48:43.492Z,27.70
2022-12-18T14:51:31.715Z,27.98
2022-12-18T14:54:19.878Z,30.75
2022-12-18T14:57:17.101Z,28.88
2022-12-18T15:00:17.556Z,27.08
2022-12-18T15:03:08.232Z,27.45
2022-12-18T15:05:54.024Z,26.88
2022-12-18T15:08:39.796Z,27.17
2022-12-18T15:11:36.863Z,27.58
2022-12-18T15:14:35.838Z,27.35
2022-12-18T15:17:23.944Z,25.10
2022-12-18T15:20:12.098Z,27.30
2022-12-18T15:22:57.456Z,26.80
2022-12-18T15:25:43.069Z,27.33
2022-12-18T15:28:58.395Z,26.83
2022-12-18T15:31:44.123Z,26.13
2022-12-18T15:34:30.462Z,26.50
2022-12-18T15:37:17.243Z,27.95
2022-12-18T15:40:03.244Z,26.35
2022-12-18T15:43:08.160Z,28.90
2022-12-18T15:45:53.760Z,28.00
2022-12-18T15:48:44.542Z,26.27
2022-12-18T15:51:35.909Z,28.75
2022-12-18T15:54:40.949Z,30.27
2022-12-18T15:57:26.550Z,28.67
2022-12-18T16:00:13.779Z,30.45
2022-12-18T16:03:00.163Z,28.77
2022-12-18T16:05:45.748Z,28.67
2022-12-18T16:08:31.709Z,29.30
2022-12-18T16:11:38.903Z,30.92
2022-12-18T16:14:28.205Z,30.83
2022-12-18T16:17:15.593Z,30.00
2022-12-18T16:20:01.368Z,31.83
2022-12-18T16:22:47.782Z,30.60
2022-12-18T16:25:34.134Z,30.30
2022-12-18T16:28:20.190Z,29.65
2022-12-18T16:31:06.078Z,30.25
2022-12-18T16:34:11.464Z,30.13
2022-12-18T16:37:04.801Z,29.50
2022-12-18T16:39:51.269Z,31.38
2022-12-18T16:42:38.027Z,29.95
2022-12-18T16:45:23.318Z,31.60
2022-12-18T16:48:11.995Z,31.92
2022-12-18T16:51:05.617Z,33.15
2022-12-18T16:53:51.357Z,30.20
2022-12-18T16:56:36.835Z,30.38
2022-12-18T16:59:22.930Z,29.90
2022-12-18T17:02:23.707Z,31.38
2022-12-18T17:05:09.821Z,29.65
2022-12-18T17:07:57.510Z,30.08
2022-12-18T17:10:42.938Z,29.83
2022-12-18T17:13:28.675Z,29.40
2022-12-18T17:16:14.554Z,31.08
2022-12-18T17:19:00.093Z,29.02
2022-12-18T17:21:48.893Z,31.38
2022-12-18T17:24:35.362Z,28.50
2022-12-18T17:27:21.356Z,31.48
2022-12-18T17:30:07.869Z,32.33
2022-12-18T17:32:53.358Z,31.08
2022-12-18T17:35:38.801Z,30.15
2022-12-18T17:38:24.457Z,30.15
2022-12-18T17:41:11.649Z,30.73
2022-12-18T17:44:03.622Z,31.10
2022-12-18T17:46:49.613Z,29.45
2022-12-18T17:49:35.129Z,35.33
2022-12-18T17:52:20.733Z,34.33
2022-12-18T17:55:07.002Z,32.63
2022-12-18T17:57:52.561Z,33.17
2022-12-18T18:00:40.892Z,34.17
2022-12-18T18:03:26.683Z,34.63
2022-12-18T18:06:12.633Z,34.63
2022-12-18T18:08:58.711Z,39.47
2022-12-18T18:12:06.026Z,37.58
2022-12-18T18:14:51.763Z,40.22
2022-12-18T18:17:37.255Z,37.40
2022-12-18T18:20:23.046Z,37.25
2022-12-18T18:23:08.988Z,37.13
2022-12-18T18:25:54.866Z,34.80
2022-12-18T18:28:41.456Z,35.47
2022-12-18T18:31:28.945Z,36.17
2022-12-18T18:34:20.175Z,33.38
2022-12-18T18:37:05.987Z,39.70
2022-12-18T18:39:51.748Z,41.78
2022-12-18T18:42:37.323Z,41.80
2022-12-18T18:45:22.937Z,37.83
2022-12-18T18:48:08.543Z,34.60
2022-12-18T18:50:58.857Z,32.35
2022-12-18T18:53:46.068Z,32.17
2022-12-18T18:59:38.162Z,33.35
2022-12-18T19:02:24.195Z,33.65
2022-12-18T19:05:11.379Z,33.15
2022-12-18T19:07:57.195Z,32.80
2022-12-18T19:10:43.005Z,32.92
2022-12-18T19:13:31.948Z,31.33
2022-12-18T19:16:18.144Z,30.73
2022-12-18T19:19:04.240Z,29.23
2022-12-18T19:21:50.130Z,28.25
2022-12-18T19:24:36.039Z,27.73
2022-12-18T19:27:21.938Z,24.63
2022-12-18T19:30:08.390Z,24.63
2022-12-18T19:32:54.191Z,24.95
2022-12-18T19:35:40.151Z,24.40
2022-12-18T19:38:26.289Z,23.77
2022-12-18T19:41:13.651Z,24.33
2022-12-18T19:44:02.398Z,21.65
2022-12-18T19:46:54.219Z,25.27
2022-12-18T19:49:40.333Z,24.77
2022-12-18T19:52:25.858Z,22.67
2022-12-18T19:55:11.483Z,23.58
2022-12-18T19:57:58.002Z,24.60
2022-12-18T20:00:43.268Z,26.65
2022-12-18T20:03:32.560Z,27.67
2022-12-18T20:06:25.669Z,43.75
2022-12-18T20:09:11.584Z,41.95
2022-12-18T20:11:57.068Z,32.55
2022-12-18T20:14:43.051Z,25.42
2022-12-18T20:17:28.767Z,26.80
2022-12-18T20:20:15.403Z,25.25
2022-12-18T20:23:01.112Z,25.13
2022-12-18T20:25:46.590Z,25.42
2022-12-18T20:28:32.048Z,23.02
2022-12-18T20:31:17.695Z,25.60
2022-12-18T20:34:05.037Z,24.73
2022-12-18T20:36:51.779Z,22.88
2022-12-18T20:39:38.393Z,24.42
2022-12-18T20:42:25.387Z,21.13
2022-12-18T20:45:11.407Z,22.70
2022-12-18T20:47:57.242Z,21.17
2022-12-18T20:50:43.465Z,21.63
2022-12-18T20:53:29.705Z,23.40
2022-12-18T20:56:20.843Z,22.35
2022-12-18T20:59:07.521Z,23.08
2022-12-18T21:01:53.208Z,22.20
2022-12-18T21:04:39.002Z,21.42
2022-12-18T21:07:24.717Z,20.40
2022-12-18T21:10:10.402Z,23.55
2022-12-18T21:13:04.606Z,21.38
2022-12-18T21:15:54.470Z,22.17
2022-12-18T21:18:40.632Z,20.55
2022-12-18T21:21:26.851Z,21.70
2022-12-18T21:24:13.018Z,20.73
2022-12-18T21:26:58.527Z,21.42
2022-12-18T21:29:44.261Z,22.02
2022-12-18T21:32:33.463Z,21.00
2022-12-18T21:35:20.560Z,21.63
2022-12-18T21:38:07.713Z,20.15
2022-12-18T21:40:53.230Z,20.73
2022-12-18T21:44:00.468Z,21.60
2022-12-18T21:46:54.848Z,19.58
2022-12-18T21:49:42.375Z,21.25
2022-12-18T21:52:31.872Z,20.38
2022-12-18T21:55:18.460Z,21.80
2022-12-18T21:58:03.993Z,20.92
2022-12-18T22:00:50.158Z,19.40
2022-12-18T22:03:35.709Z,20.85
2022-12-18T22:06:22.401Z,21.35
2022-12-18T22:09:09.232Z,20.50
2022-12-18T22:11:54.706Z,20.90
2022-12-18T22:14:40.380Z,21.23
2022-12-18T22:17:26.262Z,20.10
2022-12-18T22:20:13.706Z,20.42
2022-12-18T22:22:59.967Z,21.25
2022-12-18T22:25:51.503Z,20.40
2022-12-18T22:28:55.524Z,21.77
2022-12-18T22:31:41.143Z,19.27
2022-12-18T22:34:26.671Z,20.52
2022-12-18T22:37:12.553Z,20.08
2022-12-18T22:39:58.058Z,18.77
2022-12-18T22:42:43.574Z,21.42
2022-12-18T22:45:29.031Z,20.50
2022-12-18T22:48:14.887Z,19.55
2022-12-18T22:51:03.182Z,20.35
2022-12-18T22:53:49.156Z,19.88
2022-12-18T22:56:35.198Z,21.10
2022-12-18T22:59:22.774Z,21.08
2022-12-18T23:02:08.691Z,19.27
2022-12-18T23:04:54.152Z,19.75
2022-12-18T23:07:39.888Z,19.52
2022-12-18T23:10:25.615Z,19.80
2022-12-18T23:13:11.307Z,19.38
2022-12-18T23:15:56.919Z,19.42
2022-12-18T23:18:42.984Z,19.02
2022-12-18T23:21:28.452Z,17.05
2022-12-18T23:24:15.199Z,17.13
2022-12-18T23:27:01.596Z,17.60
2022-12-18T23:29:50.193Z,17.05
2022-12-18T23:32:37.669Z,17.73
2022-12-18T23:35:23.329Z,18.70
2022-12-18T23:38:08.872Z,19.83
2022-12-18T23:40:55.698Z,21.85
2022-12-18T23:43:42.937Z,21.20
2022-12-18T23:46:32.489Z,23.98
2022-12-18T23:49:18.449Z,23.17
2022-12-18T23:52:04.530Z,22.88
2022-12-18T23:54:49.979Z,24.52
2022-12-18T23:57:35.624Z,24.27
